Aérodrome :







RETROUVEZ-NOUS SUR...

 
LOGIN :

S'inscrire | Disclaimer

   EN    FR    IT 

 









Légende :    VFR   VFR Marginal   IFR   IFR Intensif   IFR Très Intensif
Visi : 
Plafond : 
>= 8 km
>= 3000ft
5 à 8 km
1000 à 3000 ft
1500m à 5 km
500 à 1000 ft
800 à 1500m
200 à 500 ft
< 800m
< 200 ft
Symboles :   Orages  Brouillard  Fortes neiges  Fortes précipitations  Vent > 20 kt






- Altitude de l'aérodrome : 124 ft
- Code IATA : YGV


CYGV - Havre St Pierre

DERNIER METAR :
  • 190500Z AUTO 13012G18KT 1 1/4SM -SN FEW009 OVC013 M08/M09 A2996 RMK PRESFR SLP152

METARs EXPIRÉS :
  • 190416Z AUTO 15014G21KT 1 1/2SM -SN SCT018 OVC022 M08/M10 A3003 RMK PRESFR SLP174
  • 190407Z AUTO 14013G18KT 5SM -SN BKN016 OVC038 M08/M11 A3005 RMK PRESFR SLP180
  • 190404Z AUTO 14012G20KT 7SM -SN SCT016 BKN024 OVC038 M08/M10 A3005 RMK PRESFR SLP181
  • 190346Z AUTO 14010G17KT 2SM -SN FEW014 OVC027 M08/M10 A3007 RMK SLP189
  • 190342Z AUTO 15013KT 1 1/2SM -SN FEW019 OVC025 M08/M11 A3008 RMK SLP191
  • 190314Z AUTO 16012G17KT 5SM -SN FEW020 OVC035 M08/M11 A3011 RMK PRESFR SLP201
  • 190300Z AUTO 16010G16KT 9SM -SN FEW020 BKN035 OVC048 M08/M12 A3012 RMK PRESFR SLP206
  • 190251Z AUTO 16010G16KT 6SM -SN BKN035 OVC048 M08/M12 A3013 RMK PRESFR SLP209
  • 190237Z AUTO 17010G15KT 5SM -SN FEW025 OVC035 M08/M12 A3015 RMK PRESFR SLP215

TAF AMD TAF CYGV
Valide du 19 à 03h jusqu'au 19 à 14h UTC


190306Z 1903/1914 14010G20KT P6SM -SN OVC040
TEMPO 1903/1905 11/2SM -SN OVC020
FM190500 13010G20KT 11/2SM -SN OVC015
TEMPO 1905/1910 3/4SM -SN BLSN VV006
FM191000 14010G20KT 2SM -SN OVC010
TEMPO 1910/1914 4SM -SN RMK FCST BASED ON AUTO OBS. NXT FCST BY 190800Z



MET'MAP, la Météo Aéronautique d'un coup d'oeil ! - Copyright ORBIFLY Décembre 2007 - Disclaimer

ORBIFLY MET'MAP TEAM :

Programmation & Développement : Alexandra Zaïnal
Sur une idée originale de : Baudouin d'Aumeries
Assistance à la programmation : Marc-Olivier Méhu
Soutien technique & logistique : Manuel Goepfert

Contact : metmap@orbifly.com




SOURCES & CREDITS :

   NOAA